Terminal Aerodrome Forecast
Issued by NWS Denver/Boulder, CO

Home | Current Version | Previous Version | Text Only | Print | Product List | Glossary On
Versions: 1 2 3 4 5 6 7 8 9 10 11 12 13 14 15 16 17 18 19 20 21 22 23 24 25 26 27 28 29 30 31 32 33 34 35 36 37 38 39 40 41 42 43 44 45 46 47 48 49 50
000
FTUS45 KBOU 272222 AAB
TAFDEN
TAF AMD
KDEN 272222Z 2722/2824 29015G25KT P6SM VCTS SCT050CB SCT120
      TEMPO 2722/2724 VRB20G35KT 5SM TSRA BKN040CB
     FM280400 06008KT P6SM FEW050 SCT090 BKN120
     FM280600 14007KT P6SM SCT050 BKN120
     FM280800 21009KT P6SM SCT090 BKN150
     FM281600 35010KT P6SM FEW050 SCT090 BKN150
     FM282000 36010KT P6SM SCT060 BKN100
      TEMPO 2820/2824 VRB15G30KT -TSRA BKN050CB=

USA.gov is the U.S. government's official web portal to all federal, state and local government web resources and services.